Last 24 Hours

Canyon Lodge - 8,343ft

5 Minute Data | America/Los_Angeles
as of 5/8/26 5:25 PM PDT
Date & Time Temp (°F) RH (%) Dew Pt (°F) Wet Bulb (°F) Wind Dir (°) Wind Spd (mph) Wind Gust (mph) Wind Gst Dir (°)
5/8/26 - 1725 60.5 25 24.9 44.7 SW | 226 3.3 10.6 W | 262
5/8/26 - 1720 60.4 26 25.1 44.7 SSW | 212 3.1 9.2 SSW | 196
5/8/26 - 1715 61.0 25 25.2 45.0 SW | 231 2.5 7.6 WSW | 255
5/8/26 - 1710 61.5 25 25.4 45.2 WSW | 239 2.4 7.3 WSW | 250
5/8/26 - 1705 60.9 25 24.6 44.7 SSW | 197 3.8 8.5 SSW | 201
5/8/26 - 1700 60.9 25 24.9 44.8 SSW | 208 1.7 6.6 SSW | 198
5/8/26 - 1655 61.5 25 25.4 45.2 WSW | 258 1.6 5.3 WNW | 291
5/8/26 - 1650 61.2 25 24.8 45.0 SSW | 207 3.3 10.1 S | 176
5/8/26 - 1645 61.1 24 24.5 44.8 SSW | 199 2.6 7.9 SW | 231
5/8/26 - 1640 61.6 25 25.1 45.2 S | 170 2.3 6.4 SSW | 195
5/8/26 - 1635 61.1 25 24.7 44.9 S | 191 2.0 7.2 SSW | 194
5/8/26 - 1630 61.2 25 25.0 45.0 SSW | 211 2.5 6.5 WSW | 255
5/8/26 - 1625 61.6 25 25.2 45.2 S | 169 1.8 7.2 SSW | 195
5/8/26 - 1620 62.2 25 25.5 45.5 N | 10 0.9 3.5 NE | 44
5/8/26 - 1615 63.5 25 26.7 46.4 W | 281 0.2 4.3 NW | 307
5/8/26 - 1610 62.8 25 26.3 46.0 WSW | 250 1.0 6.4 SW | 220
5/8/26 - 1605 62.4 25 25.9 45.7 S | 185 2.1 6.8 S | 175
5/8/26 - 1600 63.7 25 27.4 46.7 SW | 214 1.1 4.7 SW | 230
5/8/26 - 1555 63.2 25 26.6 46.3 SSW | 193 1.2 5.8 SSW | 203
5/8/26 - 1550 62.9 25 26.8 46.2 SW | 227 1.5 6.7 WSW | 246
5/8/26 - 1545 62.4 25 26.1 45.8 SSW | 192 2.7 11.8 S | 181
5/8/26 - 1540 62.6 25 26.6 46.0 W | 268 2.1 7.3 NNW | 329
5/8/26 - 1535 62.3 25 26.2 45.8 S | 184 1.9 8.1 SSW | 192
5/8/26 - 1530 61.9 25 26.0 45.6 SSE | 168 3.3 10.8 S | 178
5/8/26 - 1525 62.3 26 26.6 45.9 SSW | 199 2.6 8.7 SW | 218
5/8/26 - 1520 62.0 26 26.9 45.8 NW | 322 1.2 4.6 NW | 323
5/8/26 - 1515 63.5 26 27.8 46.7 SW | 236 1.9 6.7 SW | 218
5/8/26 - 1510 64.2 26 28.3 47.1 NW | 307 1.9 7.5 WNW | 301
5/8/26 - 1505 63.8 25 27.7 46.8 SSW | 192 2.7 9.6 S | 183
5/8/26 - 1500 62.6 25 26.3 45.9 SW | 217 2.7 7.2 S | 189
5/8/26 - 1455 63.0 26 27.2 46.3 W | 260 2.7 10.0 S | 181
5/8/26 - 1450 63.5 25 27.5 46.6 NW | 313 1.0 4.6 NNW | 333
5/8/26 - 1445 63.5 26 27.8 46.7 S | 183 1.9 8.4 S | 186
5/8/26 - 1440 63.4 26 28.3 46.8 SW | 232 1.4 8.1 WSW | 251
5/8/26 - 1435 62.4 26 27.0 46.0 SSW | 200 3.4 10.7 SSE | 161
5/8/26 - 1430 62.8 25 26.8 46.1 SSE | 164 2.0 9.0 S | 181
5/8/26 - 1425 63.9 25 27.6 46.8 SE | 139 0.6 4.3 SW | 231
5/8/26 - 1420 63.1 25 26.9 46.3 ESE | 116 2.1 6.8 E | 88
5/8/26 - 1415 62.0 26 26.3 45.6 SSE | 162 2.2 8.3 SSE | 163
5/8/26 - 1410 63.5 25 27.1 46.5 SSE | 158 0.2 1.4 S | 180
5/8/26 - 1405 63.1 26 27.7 46.5 S | 183 1.5 4.9 S | 186
5/8/26 - 1400 63.0 26 27.5 46.4 SSW | 205 2.3 9.1 SW | 220
5/8/26 - 1355 63.5 25 27.4 46.6 S | 186 1.9 5.5 SSE | 148
5/8/26 - 1350 62.2 25 25.8 45.6 SSE | 150 2.8 10.1 SE | 124
5/8/26 - 1345 63.4 25 27.1 46.5 SSE | 148 2.5 7.6 SSW | 204
5/8/26 - 1340 62.5 26 26.8 46.0 SSW | 210 2.2 9.6 SSW | 204
5/8/26 - 1335 63.6 26 27.9 46.8 SW | 233 2.6 8.6 NNW | 338
5/8/26 - 1330 62.2 26 26.5 45.8 WNW | 295 1.9 8.6 NW | 326
5/8/26 - 1325 61.0 26 25.6 45.1 NNW | 328 4.1 9.4 WNW | 298
5/8/26 - 1320 61.2 25 25.1 45.0 SE | 124 3.2 8.1 ESE | 105
5/8/26 - 1315 60.9 25 25.2 44.9 SE | 136 2.1 6.4 ESE | 114
5/8/26 - 1310 61.0 26 25.8 45.1 SSE | 162 3.7 11.6 ESE | 123
5/8/26 - 1305 60.9 27 26.4 45.2 WNW | 293 3.5 8.5 WSW | 249
5/8/26 - 1300 61.4 26 26.2 45.4 S | 182 3.5 10.7 S | 189
5/8/26 - 1255 60.9 26 26.0 45.1 S | 173 3.9 12.0 S | 188
5/8/26 - 1250 61.4 27 26.7 45.5 SSE | 150 2.9 13.7 SE | 129
5/8/26 - 1245 61.1 27 26.7 45.4 SSE | 162 3.3 10.0 SE | 126
5/8/26 - 1240 61.2 28 27.5 45.7 ESE | 106 1.5 4.8 SE | 143
5/8/26 - 1235 61.2 28 27.6 45.7 SSE | 154 1.7 6.5 SW | 217
5/8/26 - 1230 60.8 28 27.3 45.4 SW | 214 4.8 12.2 S | 185
5/8/26 - 1225 61.5 27 27.2 45.7 S | 173 2.3 8.3 S | 174
5/8/26 - 1220 60.4 28 26.8 45.1 SSW | 193 2.9 8.6 SSW | 202
5/8/26 - 1215 60.4 28 27.0 45.2 SSW | 198 3.8 11.8 S | 173
5/8/26 - 1210 60.9 28 27.6 45.6 SSW | 205 4.9 10.4 S | 187
5/8/26 - 1205 61.2 28 27.8 45.8 S | 187 5.3 9.5 S | 186
5/8/26 - 1200 60.4 28 27.5 45.3 S | 171 4.9 9.6 SSE | 156
5/8/26 - 1155 61.1 30 29.3 46.2 SSW | 210 3.5 9.8 S | 186
5/8/26 - 1150 61.2 30 29.6 46.4 SW | 232 2.3 8.9 W | 275
5/8/26 - 1145 60.1 30 28.8 45.6 SSW | 204 3.6 9.4 SSW | 212
5/8/26 - 1140 59.6 30 27.9 45.1 SW | 227 4.1 9.1 WSW | 238
5/8/26 - 1135 60.8 30 29.4 46.1 SSW | 192 2.0 9.6 S | 187
5/8/26 - 1130 59.5 31 28.7 45.3 SSE | 153 4.9 11.8 SSE | 155
5/8/26 - 1125 59.7 31 29.0 45.5 S | 177 4.6 11.0 SSW | 205
5/8/26 - 1120 59.1 31 28.6 45.1 SSW | 194 3.7 11.5 SSW | 203
5/8/26 - 1115 59.6 30 28.3 45.2 S | 184 3.0 11.9 SSE | 149
5/8/26 - 1110 59.4 29 27.0 44.8 S | 169 5.2 11.2 S | 174
5/8/26 - 1105 59.5 29 27.5 44.9 SSW | 206 4.8 11.9 S | 184
5/8/26 - 1100 58.9 30 27.4 44.7 S | 184 5.7 14.0 S | 184
5/8/26 - 1055 59.4 31 28.6 45.2 S | 182 5.3 14.8 SSW | 200
5/8/26 - 1050 58.8 32 28.6 45.0 S | 175 4.4 11.7 S | 178
5/8/26 - 1045 58.8 32 29.0 45.1 SSE | 159 4.1 11.0 SSW | 192
5/8/26 - 1040 59.8 32 29.9 45.8 SW | 220 2.8 11.0 S | 174
5/8/26 - 1035 58.9 31 28.4 45.0 SSW | 205 3.5 8.5 WSW | 252
5/8/26 - 1030 59.9 31 29.4 45.8 SSW | 209 0.7 6.3 S | 177
5/8/26 - 1025 58.6 31 28.2 44.8 SW | 234 2.9 9.1 W | 271
5/8/26 - 1020 59.1 31 28.8 45.2 SSW | 194 1.2 6.8 SSE | 162
5/8/26 - 1015 58.3 31 27.6 44.5 S | 174 3.3 13.2 S | 190
5/8/26 - 1010 58.1 31 27.6 44.4 SSW | 199 4.8 14.9 SSW | 192
5/8/26 - 1005 58.3 31 27.8 44.5 SSW | 203 4.2 12.9 SSW | 205
5/8/26 - 1000 58.0 31 27.8 44.4 SSW | 195 3.4 12.0 SSE | 153
5/8/26 - 0955 57.9 32 28.5 44.6 S | 172 3.5 12.7 SSW | 200
5/8/26 - 0950 58.0 32 28.6 44.6 W | 267 1.7 8.8 SSE | 164
5/8/26 - 0945 58.0 32 28.0 44.4 S | 188 2.5 8.2 SW | 233
5/8/26 - 0940 58.0 32 28.5 44.6 SSW | 198 2.0 6.8 SSW | 197
5/8/26 - 0935 57.5 34 29.0 44.6 SSW | 205 2.2 7.1 S | 186
5/8/26 - 0930 57.0 33 28.1 44.0 SSE | 167 3.6 11.0 SSW | 198
5/8/26 - 0925 56.9 32 27.5 43.8 SSW | 209 3.8 11.8 SW | 217
5/8/26 - 0920 57.4 32 28.0 44.2 SSW | 210 3.2 10.3 SSW | 198
5/8/26 - 0915 57.4 33 28.5 44.3 SSW | 193 2.4 12.4 S | 185
5/8/26 - 0910 57.1 34 29.1 44.4 SSW | 201 2.2 9.4 S | 189
5/8/26 - 0905 57.7 33 29.1 44.7 SSE | 162 1.6 6.7 S | 176
5/8/26 - 0900 57.4 33 28.3 44.3 SSE | 159 2.2 8.8 SSW | 204
5/8/26 - 0855 56.8 33 28.3 44.0 SSE | 152 3.5 15.2 SSE | 158
5/8/26 - 0850 56.5 34 28.2 43.9 S | 185 4.8 12.6 S | 170
5/8/26 - 0845 56.2 33 27.4 43.5 S | 189 3.9 11.0 S | 188
5/8/26 - 0840 55.8 34 27.7 43.4 S | 178 7.1 16.0 SSW | 198
5/8/26 - 0835 55.8 35 28.5 43.6 SSE | 165 6.2 11.8 SE | 130
5/8/26 - 0830 55.8 35 28.4 43.6 S | 169 5.1 11.3 SE | 145
5/8/26 - 0825 56.2 34 28.3 43.8 S | 180 3.2 12.4 S | 183
5/8/26 - 0820 56.2 34 28.0 43.6 S | 174 2.3 7.9 SSW | 207
5/8/26 - 0815 56.1 34 27.9 43.6 ESE | 118 2.1 6.2 E | 84
5/8/26 - 0810 55.8 34 27.6 43.4 SE | 138 1.6 5.0 ENE | 63
5/8/26 - 0805 55.7 33 27.3 43.2 SSE | 160 0.8 3.1 ESE | 110
5/8/26 - 0800 55.6 33 27.3 43.2 NW | 316 0.3 2.6 SSE | 150
5/8/26 - 0755 55.0 33 26.2 42.6 S | 176 2.3 8.0 SW | 214
5/8/26 - 0750 54.5 33 25.8 42.2 SSW | 194 5.2 11.8 SW | 216
5/8/26 - 0745 54.3 33 25.5 42.0 S | 184 3.8 10.9 S | 181
5/8/26 - 0740 54.1 33 25.4 41.9 S | 189 5.7 13.4 SSE | 166
5/8/26 - 0735 53.8 33 25.6 41.9 S | 183 3.7 11.6 SSW | 202
5/8/26 - 0730 53.8 34 26.5 42.1 S | 191 4.0 12.3 SSW | 198
5/8/26 - 0725 53.5 34 26.0 41.8 S | 183 5.2 15.6 SSW | 192
5/8/26 - 0720 53.5 34 25.8 41.7 S | 190 3.5 12.3 S | 185
5/8/26 - 0715 53.4 33 25.3 41.5 S | 190 3.5 9.9 SSW | 202
5/8/26 - 0710 52.7 33 24.7 41.0 S | 187 3.4 12.0 SSE | 162
5/8/26 - 0705 50.8 34 23.2 39.7 SSE | 157 1.7 7.3 SSW | 196
5/8/26 - 0700 47.2 33 19.4 36.8 N | 353 1.4 5.3 N | 2
5/8/26 - 0655 46.9 33 19.4 36.7 NNE | 19 1.0 7.9 NNE | 30
5/8/26 - 0650 46.3 34 19.3 36.3 N | 349 0.3 1.6 NNW | 345
5/8/26 - 0645 46.6 33 19.2 36.4 N | 10 0.8 4.3 N | 349
5/8/26 - 0640 47.3 33 19.9 37.0 N | 349 2.2 6.5 N | 6
5/8/26 - 0635 47.0 34 19.8 36.8 NNW | 336 2.9 8.3 NW | 320
5/8/26 - 0630 47.4 34 20.3 37.2 NNW | 330 2.5 5.2 NNW | 341
5/8/26 - 0625 46.0 33 18.7 36.0 NNW | 343 2.2 5.3 NNW | 344
5/8/26 - 0620 48.9 33 21.4 38.2 NNW | 328 1.8 11.3 W | 273
5/8/26 - 0615 46.7 32 18.7 36.4 NNW | 328 2.3 6.0 NNE | 18
5/8/26 - 0610 45.5 32 17.4 35.4 NNW | 337 2.4 5.4 NW | 314
5/8/26 - 0605 46.3 32 18.0 36.0 NNW | 342 2.3 4.9 NNW | 337
5/8/26 - 0600 48.8 33 20.7 38.0 WNW | 282 2.2 8.6 W | 278
5/8/26 - 0555 49.0 33 21.2 38.2 SSW | 203 1.4 8.7 WNW | 290
5/8/26 - 0550 48.9 33 20.8 38.1 SSW | 194 1.7 6.3 S | 172
5/8/26 - 0545 50.1 33 21.9 39.0 SSW | 206 2.7 7.3 SSW | 196
5/8/26 - 0540 49.2 33 21.4 38.4 SW | 216 3.4 12.2 SSW | 199
5/8/26 - 0535 48.3 33 20.3 37.6 WSW | 252 1.4 6.7 WSW | 246
5/8/26 - 0530 44.4 32 16.5 34.7 NW | 321 0.6 5.6 NNW | 335
5/8/26 - 0525 44.3 32 16.4 34.6 N | 351 0.7 3.9 N | 1
5/8/26 - 0520 43.4 32 15.7 33.9 NE | 54 0.3 2.0 ENE | 63
5/8/26 - 0515 41.2 32 13.5 32.1 SSE | 154 0.4 3.7 N | 10
5/8/26 - 0510 40.7 32 12.9 31.7 NNW | 347 0.2 3.2 NNE | 18
5/8/26 - 0505 41.4 32 13.4 32.3 NE | 44 0.2 1.1 ESE | 103
5/8/26 - 0500 42.1 32 14.4 32.9 ENE | 76 0.2 1.9 NNE | 18
5/8/26 - 0455 42.0 33 14.6 32.9 E | 100 0.0 0.4 E | 84
5/8/26 - 0450 42.9 32 15.3 33.5 NNE | 21 0.3 2.0 NNE | 32
5/8/26 - 0445 43.6 32 15.4 34.0 NE | 37 0.2 2.0 NNE | 28
5/8/26 - 0440 44.9 31 16.2 34.9 NNE | 25 0.5 3.1 SSW | 209
5/8/26 - 0435 44.0 30 14.9 34.0 NNE | 17 1.0 3.2 E | 93
5/8/26 - 0430 42.9 30 13.7 33.2 NE | 40 0.0 0.6 NE | 53
5/8/26 - 0425 43.5 30 14.4 33.7 E | 83 0.1 1.8 NE | 40
5/8/26 - 0420 43.6 31 15.0 33.9 ESE | 115 0.1 0.8 ESE | 104
5/8/26 - 0415 44.0 31 15.1 34.1 NW | 304 0.1 1.1 SW | 218
5/8/26 - 0410 44.6 31 16.1 34.6 E | 93 0.1 1.2 E | 90
5/8/26 - 0405 45.8 31 17.2 35.5 NE | 42 0.3 2.3 N | 9
5/8/26 - 0400 47.4 31 18.0 36.6 NNE | 13 0.1 1.1 N | 3
5/8/26 - 0355 48.8 32 19.9 37.8 SSW | 203 1.0 6.2 SSE | 159
5/8/26 - 0350 49.7 30 19.8 38.3 S | 169 2.6 10.0 SE | 130
5/8/26 - 0345 50.4 29 19.7 38.6 S | 172 4.2 10.5 S | 188
5/8/26 - 0340 50.3 29 19.6 38.5 S | 169 4.2 10.4 SSE | 163
5/8/26 - 0335 50.6 29 19.7 38.7 SSE | 166 4.6 10.4 S | 175
5/8/26 - 0330 50.8 30 20.2 38.9 S | 172 6.2 12.8 S | 171
5/8/26 - 0325 50.8 30 20.4 39.0 S | 170 7.3 13.4 SSE | 164
5/8/26 - 0320 51.2 31 21.3 39.4 S | 170 7.4 15.4 S | 176
5/8/26 - 0315 51.2 29 20.3 39.2 SSE | 166 7.1 13.2 SSW | 192
5/8/26 - 0310 51.6 29 20.7 39.4 SSE | 168 7.2 14.9 S | 169
5/8/26 - 0305 51.3 30 20.6 39.2 S | 172 6.2 15.1 SW | 216
5/8/26 - 0300 51.2 30 21.0 39.3 S | 172 6.0 12.3 SSE | 155
5/8/26 - 0255 50.4 31 20.7 38.8 SSE | 164 5.3 12.7 S | 171
5/8/26 - 0250 50.6 31 20.8 38.9 SSE | 161 5.9 14.3 S | 170
5/8/26 - 0245 50.1 30 20.2 38.6 SSE | 164 6.0 12.7 S | 179
5/8/26 - 0240 49.6 30 19.6 38.1 S | 178 5.2 13.1 S | 175
5/8/26 - 0235 50.3 30 20.2 38.7 S | 173 8.2 15.6 SSE | 147
5/8/26 - 0230 50.0 30 19.5 38.3 S | 176 5.5 11.9 S | 180
5/8/26 - 0225 50.0 30 19.9 38.4 S | 171 6.0 12.1 S | 181
5/8/26 - 0220 49.5 30 19.2 38.0 S | 173 4.4 11.9 SSE | 162
5/8/26 - 0215 49.5 29 18.9 37.9 S | 180 3.4 8.6 SSE | 162
5/8/26 - 0210 49.6 29 18.8 38.0 S | 180 2.8 8.2 SW | 218
5/8/26 - 0205 49.7 29 19.0 38.1 SSW | 198 2.5 8.2 SSW | 198
5/8/26 - 0200 48.9 29 18.1 37.4 S | 186 2.1 6.0 SSW | 206
5/8/26 - 0155 48.6 29 18.0 37.2 SSW | 201 0.8 2.9 S | 174
5/8/26 - 0150 48.9 29 18.2 37.5 SW | 224 1.5 10.7 SSW | 196
5/8/26 - 0145 49.3 29 18.2 37.6 SSW | 195 2.1 7.8 SW | 221
5/8/26 - 0140 47.6 28 16.5 36.4 SSW | 204 0.3 3.5 SSW | 192
5/8/26 - 0135 46.0 28 15.1 35.2 WSW | 242 0.3 3.4 W | 259
5/8/26 - 0130 44.4 28 13.4 34.0 NE | 42 0.0 0.2 NE | 35
5/8/26 - 0125 43.4 27 12.0 33.1 N | 5 0.0 1.1 NNE | 16
5/8/26 - 0120 43.2 27 11.5 32.9 S | 182 0.0 0.2 S | 177
5/8/26 - 0115 43.4 27 11.8 33.1 S | 183 0.1 1.5 S | 184
5/8/26 - 0110 43.5 27 11.8 33.2 WSW | 249 0.1 1.5 WSW | 255
5/8/26 - 0105 44.3 26 11.8 33.6 S | 186 1.3 4.9 S | 178
5/8/26 - 0100 43.4 26 10.9 32.9 SSW | 208 0.6 3.7 SSW | 203
5/8/26 - 0055 43.4 26 11.1 33.0 S | 185 0.5 2.8 SW | 217
5/8/26 - 0050 42.8 26 10.4 32.5 ESE | 116 1.3 5.3 SSW | 212
5/8/26 - 0045 42.4 27 10.6 32.3 S | 178 0.6 2.7 SW | 214
5/8/26 - 0040 42.7 26 10.1 32.4 SSW | 202 0.4 2.2 SSW | 200
5/8/26 - 0035 42.5 25 9.2 32.1 NNE | 25 0.0 1.0 NNE | 22
5/8/26 - 0030 43.0 27 11.2 32.8 S | 182 0.4 2.7 SSW | 199
5/8/26 - 0025 42.8 27 11.2 32.7 SSW | 209 0.2 3.0 S | 185
5/8/26 - 0020 43.5 27 11.7 33.1 SW | 233 0.2 3.3 SSW | 193
5/8/26 - 0015 43.8 26 11.4 33.2 S | 190 0.1 0.9 SSW | 210
5/8/26 - 0010 44.4 26 11.4 33.6 SSW | 211 0.3 2.7 SSW | 201
5/8/26 - 0005 44.0 26 11.0 33.3 S | 172 0.1 2.0 S | 176
5/8/26 - 0000 44.8 26 12.0 33.9 SSW | 210 0.2 2.8 SSW | 192
5/7/26 - 2355 44.9 26 11.7 33.9 SE | 134 0.5 2.2 SE | 142
5/7/26 - 2350 44.8 25 11.2 33.8 SW | 224 0.0 0.4 SE | 140
5/7/26 - 2345 45.3 25 12.0 34.2 SW | 216 0.1 0.7 S | 173
5/7/26 - 2340 46.3 25 12.3 34.8 NNE | 13 0.1 2.1 N | 6
5/7/26 - 2335 48.0 25 14.3 36.1 NNW | 343 1.5 4.0 N | 0
5/7/26 - 2330 48.2 26 14.8 36.4 WNW | 292 1.4 5.0 W | 268
5/7/26 - 2325 50.2 26 16.2 37.7 NW | 306 0.8 7.4 WNW | 294
5/7/26 - 2320 49.5 25 15.2 37.1 NNW | 343 0.6 2.7 NNW | 342
5/7/26 - 2315 50.6 25 16.2 37.9 WNW | 301 1.9 10.3 NNW | 338
5/7/26 - 2310 49.3 25 14.7 36.9 WSW | 243 0.9 4.2 WSW | 255
5/7/26 - 2305 49.1 25 14.4 36.8 WNW | 300 1.3 8.8 SE | 131
5/7/26 - 2300 47.0 24 12.4 35.2 NNW | 340 1.2 3.6 WNW | 299
5/7/26 - 2255 47.4 24 12.6 35.5 NNW | 345 1.2 2.7 NNW | 333
5/7/26 - 2250 46.6 24 11.4 34.8 N | 352 1.1 4.5 N | 0
5/7/26 - 2245 46.3 23 11.0 34.6 NNW | 348 0.3 1.5 NW | 312
5/7/26 - 2240 47.4 24 12.0 35.4 N | 355 1.1 5.0 NNE | 15
5/7/26 - 2235 47.5 23 12.0 35.4 N | 350 1.3 7.3 NNE | 26
5/7/26 - 2230 46.2 23 10.5 34.4 NNW | 341 0.6 3.1 NW | 321
5/7/26 - 2225 45.5 23 10.0 34.0 ENE | 59 0.2 2.1 ENE | 60
5/7/26 - 2220 46.0 23 9.8 34.2 S | 174 0.0 0.9 WSW | 247
5/7/26 - 2215 46.1 22 9.6 34.2 NNE | 33 0.3 2.0 NNE | 17
5/7/26 - 2210 46.0 23 10.0 34.2 NNE | 23 0.0 0.4 ENE | 57
5/7/26 - 2205 46.4 23 10.4 34.6 NW | 326 0.0 0.5 NNE | 17
5/7/26 - 2200 45.9 23 10.1 34.2 SW | 219 0.1 1.2 SW | 216
5/7/26 - 2155 46.6 23 10.8 34.7 SSW | 203 0.6 3.9 SSW | 199
5/7/26 - 2150 46.4 23 11.0 34.7 NE | 34 0.0 0.5 ENE | 63
5/7/26 - 2145 46.9 23 10.8 34.9 N | 7 0.8 3.0 N | 0
5/7/26 - 2140 46.4 23 10.3 34.6 ESE | 120 0.3 2.4 SE | 143
5/7/26 - 2135 47.8 23 11.8 35.6 SSW | 199 0.5 2.9 SSW | 198
5/7/26 - 2130 46.7 23 10.7 34.7 SSW | 195 0.1 0.9 SSW | 206
5/7/26 - 2125 47.3 23 11.4 35.2 NNW | 344 0.1 0.7 N | 349
5/7/26 - 2120 46.9 22 10.0 34.8 SSW | 195 0.3 1.6 SSW | 203
5/7/26 - 2115 47.4 22 10.4 35.1 N | 0 0.0 0.0 N | 4
5/7/26 - 2110 47.4 22 10.4 35.1 ESE | 120 0.1 1.1 SSW | 193
5/7/26 - 2105 47.5 22 10.8 35.2 S | 180 0.1 1.9 S | 174
5/7/26 - 2100 47.6 22 10.8 35.3 S | 169 0.0 0.5 S | 186
5/7/26 - 2055 48.4 23 12.2 36.0 SSW | 193 0.1 1.4 SSW | 197
5/7/26 - 2050 48.9 23 12.5 36.3 SSW | 200 0.1 1.2 S | 191
5/7/26 - 2045 49.4 22 12.4 36.5 WSW | 237 0.1 0.9 SSW | 204
5/7/26 - 2040 50.0 22 12.4 36.8 SSW | 208 0.1 0.9 SSW | 205
5/7/26 - 2035 51.0 22 13.3 37.5 NNE | 26 1.1 4.6 NNE | 23
5/7/26 - 2030 50.0 22 12.9 36.9 NW | 325 0.1 1.5 NNW | 331
5/7/26 - 2025 49.7 22 11.9 36.6 WNW | 295 0.1 1.2 S | 189
5/7/26 - 2020 50.3 22 13.0 37.1 NNW | 335 0.2 2.4 NNW | 331
5/7/26 - 2015 51.4 22 13.7 37.8 N | 1 1.1 3.7 N | 9
5/7/26 - 2010 51.7 22 14.0 38.0 N | 353 2.1 4.3 NNW | 341
5/7/26 - 2005 52.1 22 14.0 38.2 NE | 36 1.1 4.2 NNE | 13
5/7/26 - 2000 52.3 22 14.7 38.4 N | 359 0.9 4.1 N | 1
5/7/26 - 1955 52.8 22 14.8 38.7 N | 11 1.5 4.3 NNE | 21
5/7/26 - 1950 52.8 22 14.8 38.7 N | 5 1.8 5.7 N | 9
5/7/26 - 1945 52.7 22 15.4 38.8 SSE | 159 1.9 9.5 SSW | 202
5/7/26 - 1940 52.7 23 15.7 38.8 SW | 220 2.5 10.1 NNW | 348
5/7/26 - 1935 52.9 23 15.9 39.0 WSW | 240 1.7 7.3 SSE | 151
5/7/26 - 1930 52.9 23 15.8 39.0 WSW | 244 1.6 8.5 SSE | 151
5/7/26 - 1925 53.1 23 16.0 39.1 SSW | 208 1.8 8.8 S | 189
5/7/26 - 1920 53.4 23 16.4 39.3 SW | 236 1.6 8.2 SW | 222
5/7/26 - 1915 53.5 23 16.6 39.4 SSW | 208 2.1 8.4 SSW | 209
5/7/26 - 1910 53.7 23 16.7 39.6 SSW | 206 4.4 12.8 SSE | 158
5/7/26 - 1905 53.7 23 16.8 39.6 SSW | 201 1.8 14.3 W | 276
5/7/26 - 1900 54.1 23 17.3 39.9 SW | 225 2.9 11.8 W | 276
5/7/26 - 1855 54.4 23 17.9 40.2 WSW | 237 3.9 11.6 WSW | 250
5/7/26 - 1850 54.6 23 17.9 40.2 SW | 221 2.2 11.4 WSW | 245
5/7/26 - 1845 54.7 23 18.0 40.3 SW | 228 4.3 11.6 WSW | 240
5/7/26 - 1840 54.7 23 17.9 40.3 SSW | 204 2.5 13.8 SW | 229
5/7/26 - 1835 54.9 23 18.2 40.5 SSW | 212 3.9 13.3 SSW | 213
5/7/26 - 1830 55.1 23 18.5 40.6 SW | 220 2.9 11.5 SW | 225
5/7/26 - 1825 55.4 24 18.8 40.8 WSW | 253 3.7 10.6 W | 272
5/7/26 - 1820 55.5 23 18.7 40.9 SW | 220 3.6 11.8 SSW | 212
5/7/26 - 1815 55.5 23 18.7 40.8 SW | 227 4.3 11.0 WSW | 256
5/7/26 - 1810 55.7 23 18.6 41.0 SW | 218 5.9 18.8 SSE | 167
5/7/26 - 1805 56.0 23 18.4 41.0 SW | 218 4.3 10.5 WSW | 258
5/7/26 - 1800 56.2 23 18.5 41.1 SSW | 196 4.0 10.0 W | 275
5/7/26 - 1755 56.4 23 18.8 41.3 SSW | 209 4.1 10.3 S | 190
5/7/26 - 1750 56.5 23 19.1 41.4 SW | 214 4.4 13.2 S | 169
5/7/26 - 1745 56.8 23 19.5 41.6 SW | 225 2.8 13.3 S | 186
5/7/26 - 1740 57.2 23 19.9 42.0 SW | 224 3.5 10.2 SW | 214
5/7/26 - 1735 57.0 23 19.8 41.8 SSW | 210 5.7 12.8 S | 187
5/7/26 - 1730 57.2 23 20.0 42.0 SSW | 203 6.1 14.9 SSW | 201
5/7/26 - 1725 57.6 23 20.4 42.2 SSW | 193 5.7 17.7 SSE | 159
Max 64.2 35 29.9 47.1 - 8.2 18.8 -
Avg 53.4 28 20.6 40.2 - 2.3 7.4 -
Min 40.7 22 9.2 31.7 - 0.0 0.0 -